Time;durP1;ratioP1;P1;durP2;ratioP2;P2;SDS_P1;SDS_P2;PMS_P1;PMS_P2;Temp;Humidity;BMP_temperature;BMP_pressure;BME280_temperature;BME280_humidity;BME280_pressure;Samples;Min_cycle;Max_cycle;Signal;HPM_P1;HPM_P2
2022/12/08 00:02:04;;;;;;;;;11.80;11.60;;;;;4.59;83.51;99298.50;5058704;28;8840;-58
2022/12/08 00:09:20;;;;;;;;;8.60;7.00;;;;;4.60;84.04;99300.16;5057971;28;8925;-58
2022/12/08 00:10:05;;;;;;;;;11.00;10.00;;;;;4.61;84.04;99288.69;5057779;28;8870;-58
2022/12/08 00:12:53;;;;;;;;;13.60;11.20;;;;;4.61;83.38;99286.03;5073431;28;8915;-59
2022/12/08 00:15:23;;;;;;;;;14.60;12.40;;;;;4.61;83.69;99283.41;5077303;28;8848;-59
2022/12/08 00:17:51;;;;;;;;;13.40;10.80;;;;;4.61;83.23;99275.50;5077597;28;9523;-59
2022/12/08 00:20:18;;;;;;;;;7.40;7.00;;;;;4.61;83.44;99272.84;5077687;28;8861;-59
2022/12/08 00:22:46;;;;;;;;;4.00;3.80;;;;;4.59;83.67;99272.13;5062394;28;8812;-59
2022/12/08 00:25:14;;;;;;;;;9.00;7.60;;;;;4.59;83.79;99266.84;5057561;28;8849;-59
2022/12/08 00:27:45;;;;;;;;;14.40;13.00;;;;;4.60;84.02;99265.91;5062820;28;8826;-59
2022/12/08 00:30:13;;;;;;;;;6.40;4.80;;;;;4.60;83.70;99263.25;5076447;28;8873;-59
2022/12/08 00:32:41;;;;;;;;;10.00;10.00;;;;;4.61;83.89;99264.94;5076997;28;8836;-58
2022/12/08 00:35:08;;;;;;;;;11.80;11.20;;;;;4.62;83.85;99266.63;5076443;28;8947;-59
2022/12/08 00:37:36;;;;;;;;;13.80;13.40;;;;;4.63;83.81;99269.19;5073727;28;9529;-58
2022/12/08 00:40:06;;;;;;;;;10.60;9.60;;;;;4.65;83.71;99261.19;5057188;28;8858;-58
2022/12/08 00:42:33;;;;;;;;;7.00;7.00;;;;;4.67;83.73;99259.28;5057453;28;8843;-59
2022/12/08 00:45:01;;;;;;;;;13.60;9.60;;;;;4.68;83.76;99256.53;5057394;28;8820;-58
2022/12/08 00:47:29;;;;;;;;;9.40;6.60;;;;;4.70;83.54;99253.78;5059299;28;8830;-58
2022/12/08 00:49:56;;;;;;;;;12.80;12.00;;;;;4.70;83.31;99257.28;5076994;28;8825;-58
2022/12/08 00:52:24;;;;;;;;;10.00;7.80;;;;;4.71;83.26;99244.97;5077077;28;8845;-59
2022/12/08 00:54:52;;;;;;;;;12.80;11.20;;;;;4.72;83.38;99252.75;5071464;28;8839;-58
2022/12/08 00:57:20;;;;;;;;;10.40;7.00;;;;;4.71;83.07;99250.22;5056831;28;8838;-58
2022/12/08 00:59:47;;;;;;;;;8.20;8.20;;;;;4.71;83.67;99244.97;5056833;28;8860;-59
2022/12/08 01:02:15;;;;;;;;;8.00;7.20;;;;;4.71;83.15;99250.22;5056826;28;8848;-58
2022/12/08 01:04:43;;;;;;;;;10.20;9.40;;;;;4.72;83.18;99242.19;5060103;28;8846;-58
2022/12/08 01:07:10;;;;;;;;;9.20;6.80;;;;;4.71;83.81;99240.50;5076784;28;8869;-59
2022/12/08 01:09:38;;;;;;;;;13.80;13.00;;;;;4.72;83.39;99236.91;5076849;28;8834;-58
2022/12/08 01:12:06;;;;;;;;;12.60;12.00;;;;;4.71;83.27;99234.41;5076534;28;8845;-58
2022/12/08 01:14:33;;;;;;;;;8.40;8.00;;;;;4.71;83.81;99239.69;5074739;28;9476;-59
2022/12/08 01:17:02;;;;;;;;;18.60;15.60;;;;;4.70;82.87;99238.81;5056647;28;8844;-58
2022/12/08 01:19:30;;;;;;;;;10.60;9.60;;;;;4.70;83.25;99232.69;5056837;28;8828;-58
2022/12/08 01:21:57;;;;;;;;;17.20;15.80;;;;;4.70;83.68;99235.31;5056663;28;9531;-58
2022/12/08 01:24:25;;;;;;;;;14.60;13.80;;;;;4.68;83.17;99234.59;5056896;28;8860;-58
2022/12/08 01:26:53;;;;;;;;;10.00;9.60;;;;;4.68;83.67;99231.97;5075989;28;9456;-58
2022/12/08 01:29:24;;;;;;;;;10.80;8.20;;;;;4.67;83.34;99238.19;5076243;28;8845;-57
2022/12/08 01:31:51;;;;;;;;;13.40;10.00;;;;;4.65;83.23;99225.09;5076168;28;8818;-58
2022/12/08 01:34:19;;;;;;;;;14.20;13.00;;;;;4.67;83.21;99235.53;5075861;28;8819;-58
2022/12/08 01:36:47;;;;;;;;;12.40;10.80;;;;;4.65;82.91;99234.81;5076676;28;8837;-58
2022/12/08 01:39:14;;;;;;;;;14.60;12.80;;;;;4.65;83.54;99235.63;5076225;28;8846;-59
2022/12/08 01:41:42;;;;;;;;;8.20;6.60;;;;;4.65;83.32;99240.91;5076558;28;8833;-57
2022/12/08 01:44:10;;;;;;;;;11.20;8.60;;;;;4.64;83.43;99233.97;5076256;28;8825;-59
2022/12/08 01:46:38;;;;;;;;;12.00;10.00;;;;;4.64;83.37;99241.88;5057087;28;8800;-58
2022/12/08 01:49:05;;;;;;;;;12.80;10.40;;;;;4.65;83.37;99234.81;5055663;28;8820;-58
2022/12/08 01:51:33;;;;;;;;;14.20;7.80;;;;;4.65;83.28;99232.19;5056040;28;8824;-58
2022/12/08 01:54:01;;;;;;;;;8.80;7.40;;;;;4.66;83.12;99233.88;5056503;28;8858;-58
2022/12/08 01:56:29;;;;;;;;;10.80;10.00;;;;;4.67;83.46;99230.28;5073365;28;8794;-59
2022/12/08 01:58:56;;;;;;;;;6.40;6.20;;;;;4.68;83.43;99227.53;5076237;28;8826;-58
2022/12/08 02:01:24;;;;;;;;;6.60;6.00;;;;;4.69;83.03;99225.72;5076159;28;8829;-58
2022/12/08 02:03:52;;;;;;;;;9.80;8.60;;;;;4.70;83.66;99222.16;5076156;28;9472;-59
2022/12/08 02:06:20;;;;;;;;;12.20;11.00;;;;;4.71;82.92;99226.50;5059422;28;8824;-58
2022/12/08 02:08:48;;;;;;;;;14.60;12.60;;;;;4.71;83.23;99218.59;5055767;28;8827;-57
2022/12/08 02:11:16;;;;;;;;;10.00;10.00;;;;;4.73;83.13;99232.50;5055657;28;8836;-58
2022/12/08 02:13:43;;;;;;;;;12.80;12.00;;;;;4.73;83.67;99221.97;5055629;28;8824;-58
2022/12/08 02:16:11;;;;;;;;;8.60;8.20;;;;;4.71;83.36;99215.94;5070091;28;8802;-58
2022/12/08 02:18:39;;;;;;;;;11.20;9.40;;;;;4.70;83.35;99207.19;5075946;28;9491;-58
2022/12/08 02:21:07;;;;;;;;;7.40;6.80;;;;;4.70;83.03;99214.22;5075740;28;8833;-58
2022/12/08 02:23:35;;;;;;;;;9.20;9.00;;;;;4.69;82.91;99212.56;5067067;28;9596;-58
2022/12/08 02:26:02;;;;;;;;;7.40;7.00;;;;;4.70;83.29;99208.97;5055755;28;8820;-58
2022/12/08 02:28:30;;;;;;;;;9.00;7.40;;;;;4.69;83.75;99210.78;5055791;28;8824;-58
2022/12/08 02:30:58;;;;;;;;;9.40;8.20;;;;;4.67;83.44;99202.13;5055690;28;9552;-57
2022/12/08 02:33:26;;;;;;;;;9.20;8.60;;;;;4.67;83.21;99201.28;5062596;28;8895;-58
2022/12/08 02:35:54;;;;;;;;;9.20;7.40;;;;;4.64;83.65;99196.22;5075229;28;8814;-59
2022/12/08 02:38:21;;;;;;;;;9.60;7.80;;;;;4.60;83.78;99189.44;5075633;28;8838;-58
2022/12/08 02:40:49;;;;;;;;;7.20;6.80;;;;;4.54;83.33;99190.72;5075329;28;8810;-58
2022/12/08 02:43:18;;;;;;;;;6.00;6.00;;;;;4.51;83.26;99192.72;5069456;28;8831;-58
2022/12/08 02:45:46;;;;;;;;;6.00;6.00;;;;;4.48;83.50;99187.66;5055200;28;8842;-58
2022/12/08 02:48:14;;;;;;;;;9.40;9.40;;;;;4.46;83.79;99182.47;5054959;28;8944;-58
2022/12/08 02:50:41;;;;;;;;;8.20;6.20;;;;;4.45;83.42;99175.53;5055117;28;8854;-57
2022/12/08 02:53:09;;;;;;;;;14.20;12.60;;;;;4.45;83.69;99169.41;5061548;28;8822;-59
2022/12/08 02:55:39;;;;;;;;;6.60;6.60;;;;;4.45;83.63;99174.66;5079020;28;8814;-58
2022/12/08 02:58:06;;;;;;;;;7.00;6.00;;;;;4.46;83.32;99173.72;5079728;28;8943;-58
2022/12/08 03:00:34;;;;;;;;;7.80;7.00;;;;;4.47;83.46;99173.63;5079085;28;8907;-58
2022/12/08 03:03:02;;;;;;;;;6.60;6.60;;;;;4.48;83.45;99161.31;5075901;28;8808;-58
2022/12/08 03:05:29;;;;;;;;;4.00;4.00;;;;;4.50;83.73;99156.75;5059026;28;8853;-58
2022/12/08 03:07:59;;;;;;;;;8.20;8.20;;;;;4.51;83.49;99158.44;5059456;28;8852;-58
2022/12/08 03:10:27;;;;;;;;;8.20;7.00;;;;;4.51;83.55;99140.00;5059244;28;8839;-58
2022/12/08 03:12:54;;;;;;;;;6.60;6.60;;;;;4.53;83.14;99156.53;5060927;28;8807;-58
2022/12/08 03:15:22;;;;;;;;;7.40;5.20;;;;;4.54;83.47;99145.06;5079253;28;8833;-58
2022/12/08 03:17:50;;;;;;;;;5.20;5.20;;;;;4.55;83.66;99149.38;5078930;28;8856;-58
2022/12/08 03:20:18;;;;;;;;;3.40;3.40;;;;;4.56;82.90;99140.53;5079484;28;8850;-58
2022/12/08 03:22:45;;;;;;;;;4.00;4.00;;;;;4.57;83.24;99129.03;5078263;28;8821;-58
2022/12/08 03:25:13;;;;;;;;;10.00;10.00;;;;;4.58;83.23;99138.63;5058912;28;8836;-58
2022/12/08 03:27:41;;;;;;;;;10.00;8.20;;;;;4.59;83.45;99116.59;5058869;28;8816;-59
2022/12/08 03:30:08;;;;;;;;;8.80;6.40;;;;;4.61;82.79;99130.50;5058620;28;8909;-58
2022/12/08 03:32:36;;;;;;;;;1.40;1.40;;;;;4.61;82.94;99119.97;5058941;28;8820;-58
2022/12/08 03:35:03;;;;;;;;;6.40;6.00;;;;;4.62;83.05;99124.28;5077695;28;8806;-57
2022/12/08 03:37:31;;;;;;;;;10.40;8.40;;;;;4.62;82.82;99119.00;5078718;28;8857;-59
2022/12/08 03:39:59;;;;;;;;;10.20;10.20;;;;;4.64;83.46;99122.41;5078618;28;8838;-58
2022/12/08 03:42:26;;;;;;;;;6.80;6.40;;;;;4.63;82.87;99115.44;5078600;28;8850;-58
2022/12/08 03:44:54;;;;;;;;;10.40;8.80;;;;;4.65;83.38;99118.81;5059991;28;8823;-58
2022/12/08 03:47:22;;;;;;;;;9.20;7.20;;;;;4.66;83.15;99110.81;5058405;28;8838;-59
2022/12/08 03:49:50;;;;;;;;;9.40;8.60;;;;;4.67;83.13;99106.38;5058037;28;8828;-58
2022/12/08 03:52:18;;;;;;;;;10.00;9.20;;;;;4.67;82.84;99103.72;5058399;28;8832;-58
2022/12/08 03:54:46;;;;;;;;;7.40;7.40;;;;;4.67;82.89;99096.66;5074370;28;8810;-58
2022/12/08 03:57:13;;;;;;;;;9.20;7.80;;;;;4.68;83.20;99089.59;5078666;28;9573;-59
2022/12/08 03:59:41;;;;;;;;;6.20;5.20;;;;;4.69;82.76;99086.84;5078175;28;8817;-58
2022/12/08 04:02:09;;;;;;;;;9.40;8.20;;;;;4.70;83.32;99079.78;5078216;28;8814;-58
2022/12/08 04:04:36;;;;;;;;;3.00;2.80;;;;;4.69;83.26;99080.72;5061034;28;8863;-58
2022/12/08 04:07:04;;;;;;;;;10.00;8.60;;;;;4.69;83.22;99070.19;5057905;28;8855;-58
2022/12/08 04:09:32;;;;;;;;;12.40;10.80;;;;;4.68;82.96;99077.25;5058185;28;8824;-58
2022/12/08 04:11:59;;;;;;;;;7.80;7.00;;;;;4.68;82.79;99079.03;5057763;28;9473;-58
2022/12/08 04:14:28;;;;;;;;;9.00;8.60;;;;;4.67;83.16;99075.59;5070881;28;8806;-58
2022/12/08 04:16:55;;;;;;;;;10.00;10.00;;;;;4.66;83.08;99078.31;5078261;28;9495;-59
2022/12/08 04:19:23;;;;;;;;;3.60;3.00;;;;;4.65;83.12;99069.53;5077302;28;8830;-58
2022/12/08 04:21:52;;;;;;;;;11.60;9.20;;;;;4.64;82.78;99067.03;5068944;28;8802;-58
2022/12/08 04:24:19;;;;;;;;;1.80;0.40;;;;;4.62;83.30;99066.28;5077592;28;8907;-58
2022/12/08 04:26:48;;;;;;;;;9.00;6.80;;;;;4.59;83.43;99064.72;5077716;28;8842;-58
2022/12/08 04:29:16;;;;;;;;;7.40;6.80;;;;;4.58;83.62;99063.00;5064721;28;8818;-58
2022/12/08 04:31:43;;;;;;;;;13.20;12.80;;;;;4.56;83.51;99066.72;5057386;28;8822;-59
2022/12/08 04:34:11;;;;;;;;;7.00;4.00;;;;;4.53;83.32;99062.50;5057311;28;8828;-58
2022/12/08 04:36:39;;;;;;;;;10.00;9.40;;;;;4.51;83.65;99063.56;5057436;28;8856;-58
2022/12/08 04:39:07;;;;;;;;;11.20;9.80;;;;;4.49;83.44;99057.56;5063533;28;8798;-57
2022/12/08 04:41:35;;;;;;;;;9.60;9.60;;;;;4.48;83.84;99050.59;5058390;28;8800;-59
2022/12/08 04:44:02;;;;;;;;;7.00;7.00;;;;;4.46;83.95;99057.75;5057241;28;8885;-58
2022/12/08 04:46:32;;;;;;;;;14.00;12.00;;;;;4.42;82.88;99054.47;5056798;28;9486;-58
2022/12/08 04:49:02;;;;;;;;;2.60;2.60;;;;;4.42;83.95;99053.66;5067422;28;8913;-58
2022/12/08 04:51:30;;;;;;;;;9.00;7.00;;;;;4.40;83.83;99050.28;5076994;28;8825;-58
2022/12/08 04:53:57;;;;;;;;;11.00;10.60;;;;;4.38;83.72;99057.44;5077196;28;8829;-59
2022/12/08 04:56:25;;;;;;;;;9.00;8.40;;;;;4.37;84.31;99058.41;5077107;28;8822;-58
2022/12/08 04:58:53;;;;;;;;;11.20;10.00;;;;;4.35;83.63;99055.84;5066921;28;8819;-58
2022/12/08 05:01:20;;;;;;;;;10.20;8.60;;;;;4.33;84.04;99060.41;5057257;28;8874;-57
2022/12/08 05:03:49;;;;;;;;;3.00;3.00;;;;;4.33;84.09;99051.66;5056872;28;8828;-58
2022/12/08 05:06:16;;;;;;;;;9.00;7.00;;;;;4.32;83.67;99044.69;5056331;28;8879;-58
2022/12/08 05:08:44;;;;;;;;;9.00;6.80;;;;;4.31;84.19;99051.75;5064150;28;8806;-58
2022/12/08 05:11:14;;;;;;;;;11.20;9.00;;;;;4.30;83.62;99049.22;5076410;28;9507;-58
2022/12/08 05:13:42;;;;;;;;;10.40;10.00;;;;;4.29;84.08;99047.53;5075999;28;8931;-58
2022/12/08 05:16:10;;;;;;;;;8.40;8.20;;;;;4.29;83.84;99043.13;5076032;28;9509;-58
2022/12/08 05:18:37;;;;;;;;;10.60;8.40;;;;;4.29;83.72;99047.53;5069055;28;8840;-57
2022/12/08 05:21:05;;;;;;;;;7.00;6.80;;;;;4.27;83.84;99047.63;5056094;28;8832;-58
2022/12/08 05:23:34;;;;;;;;;6.60;5.40;;;;;4.26;84.07;99048.59;5056263;28;8843;-58
2022/12/08 05:26:02;;;;;;;;;6.20;4.00;;;;;4.24;83.91;99045.22;5056245;28;8970;-58
2022/12/08 05:28:30;;;;;;;;;7.00;7.00;;;;;4.24;84.27;99044.38;5061486;28;8820;-58
2022/12/08 05:31:13;;;;;;;;;0.20;0.00;;;;;4.23;83.95;99043.53;5076198;28;9495;-58
2022/12/08 05:33:43;;;;;;;;;7.20;6.80;;;;;4.22;84.25;99036.59;5076009;28;8968;-56
2022/12/08 05:36:10;;;;;;;;;8.20;7.80;;;;;4.22;84.11;99036.59;5076127;28;8873;-57
2022/12/08 05:38:38;;;;;;;;;5.60;4.00;;;;;4.22;83.99;99033.09;5069191;28;8807;-56
2022/12/08 05:41:06;;;;;;;;;5.80;5.20;;;;;4.22;84.17;99030.47;5056130;28;8816;-58
2022/12/08 05:43:34;;;;;;;;;12.40;10.60;;;;;4.20;83.83;99027.09;5056440;28;8836;-57
2022/12/08 05:46:02;;;;;;;;;8.20;8.20;;;;;4.18;83.75;99031.63;5055574;28;8859;-58
2022/12/08 05:48:30;;;;;;;;;3.40;2.60;;;;;4.14;83.88;99033.63;5060919;28;8786;-57
2022/12/08 05:50:58;;;;;;;;;7.00;6.80;;;;;4.12;83.88;99018.88;5075416;28;8853;-58
2022/12/08 05:53:25;;;;;;;;;4.60;4.60;;;;;4.11;84.62;99025.09;5075383;28;8829;-57
2022/12/08 05:55:53;;;;;;;;;7.80;7.80;;;;;4.07;84.09;99015.72;5075386;28;8821;-57
2022/12/08 05:58:24;;;;;;;;;7.80;6.00;;;;;4.05;84.02;99012.34;5071398;28;8808;-58
2022/12/08 06:01:06;;;;;;;;;0.60;0.40;;;;;4.03;84.05;99009.81;5054971;28;8856;-58
2022/12/08 06:03:34;;;;;;;;;3.00;3.00;;;;;4.02;84.62;99005.50;5055058;28;8823;-58
2022/12/08 06:06:01;;;;;;;;;6.80;6.20;;;;;4.03;84.74;99003.72;5054488;28;8828;-57
2022/12/08 06:08:30;;;;;;;;;4.00;3.20;;;;;4.02;84.20;99002.00;5058639;28;8832;-56
2022/12/08 06:10:57;;;;;;;;;5.20;4.80;;;;;4.02;84.11;98999.38;5075147;28;9538;-58
2022/12/08 06:13:25;;;;;;;;;7.40;6.40;;;;;4.02;85.06;98999.38;5074406;28;8840;-57
2022/12/08 06:15:53;;;;;;;;;4.80;4.40;;;;;4.00;84.96;98996.00;5075056;28;8848;-56
2022/12/08 06:18:21;;;;;;;;;9.00;6.60;;;;;3.99;84.77;98997.81;5074658;28;8852;-57
2022/12/08 06:20:48;;;;;;;;;7.00;4.80;;;;;3.99;84.26;99000.44;5074256;28;8842;-58
2022/12/08 06:23:16;;;;;;;;;6.40;6.20;;;;;3.97;84.63;98999.69;5074141;28;8834;-57
2022/12/08 06:25:44;;;;;;;;;8.20;6.60;;;;;3.98;84.96;99005.81;5071784;28;8842;-58
2022/12/08 06:28:12;;;;;;;;;7.00;7.00;;;;;3.97;84.24;98994.41;5071945;28;8855;-58
2022/12/08 06:30:40;;;;;;;;;4.00;4.00;;;;;3.97;84.01;98998.84;5071253;28;8892;-59
2022/12/08 06:33:08;;;;;;;;;4.40;4.00;;;;;3.98;84.62;99000.53;5070450;28;8895;-58
2022/12/08 06:35:35;;;;;;;;;4.00;4.00;;;;;3.97;84.84;99001.50;5071306;28;8826;-58
2022/12/08 06:38:03;;;;;;;;;4.00;3.40;;;;;3.96;84.87;98999.81;5071397;28;8833;-59
2022/12/08 06:40:30;;;;;;;;;4.00;4.00;;;;;3.96;84.41;98997.19;5070452;28;8821;-58
2022/12/08 06:42:58;;;;;;;;;7.40;6.60;;;;;3.97;84.78;98998.84;5071182;28;8888;-59
2022/12/08 06:45:27;;;;;;;;;3.00;1.00;;;;;3.97;84.78;98998.84;5070491;28;8830;-58
2022/12/08 06:47:54;;;;;;;;;4.80;4.80;;;;;3.98;84.89;98996.09;5071151;28;8837;-59
2022/12/08 06:50:23;;;;;;;;;6.40;6.40;;;;;3.98;84.83;99003.16;5070506;28;8830;-57
2022/12/08 06:52:50;;;;;;;;;6.00;6.00;;;;;3.98;84.84;98997.91;5071621;28;8841;-58
2022/12/08 06:55:31;;;;;;;;;6.40;6.00;;;;;3.97;84.02;98994.41;5071781;28;8830;-59
2022/12/08 06:58:18;;;;;;;;;6.00;5.20;;;;;3.99;84.49;98999.59;5070557;28;9542;-59
2022/12/08 07:00:46;;;;;;;;;6.60;5.20;;;;;3.99;84.70;99002.22;5069747;28;8857;-59
2022/12/08 07:03:14;;;;;;;;;4.00;3.20;;;;;3.98;84.96;99003.16;5070176;28;8830;-59
2022/12/08 07:05:43;;;;;;;;;4.00;3.80;;;;;3.98;84.55;99003.16;5070284;28;8830;-59
2022/12/08 07:08:11;;;;;;;;;6.00;5.60;;;;;3.99;84.88;98996.94;5069581;28;8988;-58
2022/12/08 07:10:39;;;;;;;;;5.60;4.40;;;;;3.98;84.64;99000.53;5068894;28;8854;-58
2022/12/08 07:13:07;;;;;;;;;3.20;3.20;;;;;3.98;84.80;99003.16;5068118;28;8829;-59
2022/12/08 07:15:34;;;;;;;;;3.20;3.20;;;;;3.98;84.45;99000.53;5068155;28;9608;-59
2022/12/08 07:18:02;;;;;;;;;5.60;3.00;;;;;3.97;85.10;99009.38;5068024;28;8944;-56
2022/12/08 07:20:30;;;;;;;;;5.60;4.80;;;;;3.97;85.04;99009.38;5067308;28;9220;-59
2022/12/08 07:22:58;;;;;;;;;3.00;3.00;;;;;3.98;84.80;99016.34;5067266;28;8845;-59
2022/12/08 07:25:26;;;;;;;;;3.40;3.20;;;;;3.99;85.01;99012.75;5068028;28;9096;-59
2022/12/08 07:27:53;;;;;;;;;6.40;4.80;;;;;3.99;84.49;99015.38;5067681;28;9239;-59
2022/12/08 07:30:22;;;;;;;;;3.60;3.00;;;;;3.99;84.65;99007.50;5067888;28;8845;-59
2022/12/08 07:32:50;;;;;;;;;8.20;5.20;;;;;3.97;84.83;99010.22;5069311;28;8850;-59
2022/12/08 07:35:18;;;;;;;;;3.20;3.20;;;;;3.98;84.89;99011.06;5069512;28;8840;-59
2022/12/08 07:37:46;;;;;;;;;6.20;6.20;;;;;3.99;84.67;99012.75;5070366;28;8915;-59
2022/12/08 07:40:14;;;;;;;;;6.60;6.00;;;;;3.98;84.54;99006.63;5073132;28;8846;-58
2022/12/08 07:42:41;;;;;;;;;9.60;7.80;;;;;3.98;85.16;99003.16;5073528;28;8841;-59
2022/12/08 07:45:09;;;;;;;;;0.00;0.00;;;;;3.95;84.63;99012.13;5074027;28;8869;-59
2022/12/08 07:47:37;;;;;;;;;7.80;7.80;;;;;3.95;84.81;99008.66;5073852;28;8853;-58
2022/12/08 07:50:05;;;;;;;;;7.80;7.00;;;;;3.95;84.86;99011.28;5073803;28;8826;-58
2022/12/08 07:52:33;;;;;;;;;4.80;3.60;;;;;3.94;84.81;99002.53;5073894;28;8849;-59
2022/12/08 07:55:02;;;;;;;;;3.20;3.00;;;;;3.95;85.15;99016.56;5074668;28;8844;-58
2022/12/08 07:57:30;;;;;;;;;3.60;3.60;;;;;3.96;84.60;99007.72;5074072;28;8849;-58
2022/12/08 07:59:58;;;;;;;;;6.60;6.60;;;;;3.96;85.01;99020.88;5073678;28;9317;-58
2022/12/08 08:02:26;;;;;;;;;4.20;3.60;;;;;3.95;85.13;99016.56;5073712;28;8845;-58
2022/12/08 08:04:54;;;;;;;;;5.80;5.20;;;;;3.95;85.10;99013.94;5074987;28;8846;-59
2022/12/08 08:07:22;;;;;;;;;5.60;5.60;;;;;3.96;85.11;99016.44;5074502;28;8861;-58
2022/12/08 08:09:49;;;;;;;;;6.00;5.60;;;;;3.95;84.77;99012.13;5074742;28;8833;-58
2022/12/08 08:12:17;;;;;;;;;7.00;6.00;;;;;3.95;84.96;99016.56;5074475;28;8836;-59
2022/12/08 08:15:01;;;;;;;;;6.60;6.00;;;;;3.95;84.59;99009.47;5073663;28;8842;-58
2022/12/08 08:17:29;;;;;;;;;7.40;6.80;;;;;3.94;84.28;99015.69;5072861;28;8826;-58
2022/12/08 08:19:57;;;;;;;;;7.40;6.80;;;;;3.93;85.04;99019.28;5073001;28;8838;-58
2022/12/08 08:22:25;;;;;;;;;6.40;4.40;;;;;3.93;84.51;99013.16;5073647;28;8956;-58
2022/12/08 08:24:53;;;;;;;;;6.80;5.60;;;;;3.95;85.05;99016.56;5074020;28;8848;-58
2022/12/08 08:27:21;;;;;;;;;6.00;4.80;;;;;3.94;84.63;99014.84;5074252;28;8872;-58
2022/12/08 08:29:49;;;;;;;;;3.60;3.00;;;;;3.94;84.64;99009.56;5074300;28;9145;-58
2022/12/08 08:32:16;;;;;;;;;8.20;6.40;;;;;3.92;85.31;99017.59;5073610;28;8845;-58
2022/12/08 08:34:44;;;;;;;;;7.00;5.20;;;;;3.92;84.97;99017.59;5072953;28;8825;-58
2022/12/08 08:37:12;;;;;;;;;7.40;4.00;;;;;3.94;84.65;99025.38;5072719;28;8858;-57
2022/12/08 08:39:41;;;;;;;;;4.40;3.20;;;;;3.93;85.18;99018.44;5073738;28;8876;-58
2022/12/08 08:42:10;;;;;;;;;4.80;4.80;;;;;3.93;85.19;99014.03;5072603;28;8861;-59
2022/12/08 08:44:38;;;;;;;;;6.00;5.60;;;;;3.93;85.05;99011.38;5073308;28;8842;-58
2022/12/08 08:47:05;;;;;;;;;1.00;0.40;;;;;3.94;85.21;99014.84;5072589;28;8840;-59
2022/12/08 08:49:34;;;;;;;;;10.20;9.40;;;;;3.94;84.69;99014.84;5073304;28;8826;-59
2022/12/08 08:52:01;;;;;;;;;2.00;1.80;;;;;3.91;85.30;99017.69;5073421;28;8988;-58
2022/12/08 08:54:29;;;;;;;;;2.60;2.60;;;;;3.91;84.85;99020.34;5073997;28;8930;-59
2022/12/08 08:56:57;;;;;;;;;8.20;7.40;;;;;3.90;84.75;99019.47;5074441;28;8882;-59
2022/12/08 08:59:25;;;;;;;;;6.60;5.20;;;;;3.89;84.61;99023.06;5074180;28;8956;-58
2022/12/08 09:01:53;;;;;;;;;7.00;6.20;;;;;3.89;84.82;99028.31;5073250;28;8926;-59
2022/12/08 09:04:22;;;;;;;;;6.20;6.00;;;;;3.90;85.65;99029.19;5073289;28;8862;-58
2022/12/08 09:06:49;;;;;;;;;7.20;7.20;;;;;3.90;84.93;99029.19;5073725;28;8850;-58
2022/12/08 09:09:17;;;;;;;;;4.80;4.00;;;;;3.90;84.87;99023.91;5072255;28;8845;-58
2022/12/08 09:11:45;;;;;;;;;3.80;3.20;;;;;3.89;85.37;99023.06;5071128;28;8898;-58
2022/12/08 09:14:13;;;;;;;;;2.60;1.40;;;;;3.89;84.93;99017.78;5071117;28;8829;-58
2022/12/08 09:16:41;;;;;;;;;6.60;6.40;;;;;3.90;85.19;99023.91;5069690;28;8830;-58
2022/12/08 09:19:09;;;;;;;;;4.20;3.60;;;;;3.91;85.32;99021.19;5070489;28;9491;-58
2022/12/08 09:21:37;;;;;;;;;6.00;4.00;;;;;3.90;85.44;99022.09;5070371;28;8825;-58
2022/12/08 09:24:05;;;;;;;;;4.00;3.80;;;;;3.90;84.82;99019.47;5070953;28;8838;-58
2022/12/08 09:26:33;;;;;;;;;6.40;6.00;;;;;3.92;84.85;99019.38;5071851;28;8834;-58
2022/12/08 09:29:01;;;;;;;;;4.00;3.60;;;;;3.92;84.41;99022.00;5071256;28;8825;-58
2022/12/08 09:31:29;;;;;;;;;4.80;4.00;;;;;3.93;84.38;99013.16;5071219;28;8826;-58
2022/12/08 09:33:58;;;;;;;;;0.40;0.00;;;;;3.94;85.33;99025.38;5070868;28;8972;-58
2022/12/08 09:36:25;;;;;;;;;4.00;3.80;;;;;3.95;85.35;99027.91;5071385;28;8850;-58
2022/12/08 09:38:54;;;;;;;;;3.40;3.20;;;;;3.96;85.32;99023.50;5071338;28;8818;-57
2022/12/08 09:41:22;;;;;;;;;3.20;3.00;;;;;3.97;84.59;99025.19;5070553;28;8837;-58
2022/12/08 09:43:52;;;;;;;;;3.80;3.60;;;;;3.97;85.16;99017.28;5071288;28;8918;-58
2022/12/08 09:46:20;;;;;;;;;7.80;6.00;;;;;3.97;85.33;99023.38;5070754;28;8833;-58
2022/12/08 09:48:48;;;;;;;;;4.80;3.60;;;;;3.98;85.07;99029.50;5070516;28;8818;-58
2022/12/08 09:51:16;;;;;;;;;6.00;3.40;;;;;3.98;84.90;99034.78;5071615;28;8838;-58
2022/12/08 09:53:44;;;;;;;;;3.00;2.60;;;;;3.97;85.16;99026.00;5072089;28;8833;-58
2022/12/08 09:56:12;;;;;;;;;3.00;1.00;;;;;3.96;85.36;99034.03;5072434;28;8852;-58
2022/12/08 09:58:40;;;;;;;;;3.00;3.00;;;;;3.94;84.97;99022.75;5070849;28;8826;-58
2022/12/08 10:01:07;;;;;;;;;1.80;0.40;;;;;3.94;85.34;99035.91;5070066;28;8841;-59
2022/12/08 10:03:36;;;;;;;;;4.40;4.40;;;;;3.93;85.46;99032.44;5070387;28;8872;-57
2022/12/08 10:06:04;;;;;;;;;6.00;4.00;;;;;3.92;85.39;99022.88;5071471;28;8850;-58
2022/12/08 10:08:33;;;;;;;;;3.00;3.00;;;;;3.92;85.35;99022.00;5071332;28;9503;-58
2022/12/08 10:11:01;;;;;;;;;4.80;4.80;;;;;3.91;85.26;99025.59;5071123;28;8842;-58
2022/12/08 10:13:29;;;;;;;;;3.20;2.60;;;;;3.92;85.30;99024.66;5071159;28;8874;-57
2022/12/08 10:15:57;;;;;;;;;6.40;6.40;;;;;3.94;84.97;99025.38;5071728;28;8829;-58
2022/12/08 10:18:25;;;;;;;;;6.60;6.20;;;;;3.95;84.70;99013.94;5072177;28;8842;-58
2022/12/08 10:20:53;;;;;;;;;3.80;3.80;;;;;3.94;84.72;99012.22;5071793;28;8973;-59
2022/12/08 10:23:21;;;;;;;;;3.40;3.00;;;;;3.95;85.24;99022.66;5072426;28;8858;-59
2022/12/08 10:25:49;;;;;;;;;4.40;4.20;;;;;3.95;84.59;99011.28;5072880;28;8956;-59
2022/12/08 10:28:18;;;;;;;;;3.00;3.00;;;;;3.95;85.35;99019.19;5064048;28;8914;-58
2022/12/08 10:30:45;;;;;;;;;1.00;1.00;;;;;3.91;84.92;99015.06;5071614;28;9569;-59
2022/12/08 10:33:13;;;;;;;;;4.40;4.00;;;;;3.89;84.74;99006.44;5072545;28;8876;-59
2022/12/08 10:35:41;;;;;;;;;4.20;3.20;;;;;3.85;85.00;99010.22;5070986;28;8984;-58
2022/12/08 10:38:09;;;;;;;;;3.80;3.80;;;;;3.84;85.27;99013.78;5071459;28;9801;-59
2022/12/08 10:40:38;;;;;;;;;0.80;0.60;;;;;3.81;84.99;99014.00;5071312;28;8837;-58
2022/12/08 10:43:12;;;;;;;;;6.00;6.00;;;;;3.81;85.58;99008.75;5069879;28;8854;-58
2022/12/08 10:45:42;;;;;;;;;3.80;3.80;;;;;3.78;85.21;99013.38;5069336;28;8837;-58
2022/12/08 10:48:10;;;;;;;;;4.60;4.60;;;;;3.77;85.06;99007.25;5069431;28;9619;-58
2022/12/08 10:50:38;;;;;;;;;4.80;4.00;;;;;3.73;85.38;99000.53;5070753;28;8838;-57
2022/12/08 10:53:06;;;;;;;;;3.40;3.40;;;;;3.72;85.42;99013.78;5071046;28;9168;-58
2022/12/08 10:55:34;;;;;;;;;3.00;3.00;;;;;3.70;84.85;99005.16;5071392;28;8846;-58
2022/12/08 10:58:03;;;;;;;;;4.00;3.40;;;;;3.67;85.47;99003.56;5071040;28;8841;-58
2022/12/08 11:00:31;;;;;;;;;4.80;4.00;;;;;3.65;85.01;99000.19;5071269;28;8845;-59
2022/12/08 11:02:59;;;;;;;;;4.20;3.40;;;;;3.65;85.55;98999.34;5070188;28;8840;-59
2022/12/08 11:05:27;;;;;;;;;5.20;3.80;;;;;3.67;85.13;99003.56;5069634;28;8972;-58
2022/12/08 11:07:55;;;;;;;;;4.80;4.40;;;;;3.70;85.66;98997.25;5070225;28;8873;-57
2022/12/08 11:10:24;;;;;;;;;6.80;5.80;;;;;3.70;85.00;98998.06;5069629;28;8830;-58
2022/12/08 11:12:52;;;;;;;;;6.00;6.00;;;;;3.70;85.27;98995.44;5068294;28;8854;-59
2022/12/08 11:15:20;;;;;;;;;5.60;5.20;;;;;3.70;85.20;98992.81;5072617;28;8837;-58
2022/12/08 11:17:50;;;;;;;;;3.80;3.80;;;;;3.70;84.91;98989.34;5073225;28;8829;-59
2022/12/08 11:20:24;;;;;;;;;7.00;6.00;;;;;3.67;85.20;98991.22;5073801;28;8852;-58
2022/12/08 11:22:52;;;;;;;;;4.00;4.00;;;;;3.67;85.35;98990.41;5074226;28;8880;-59
2022/12/08 11:25:20;;;;;;;;;4.80;4.00;;;;;3.70;85.07;98981.47;5073525;28;8818;-58
2022/12/08 11:27:48;;;;;;;;;4.80;4.00;;;;;3.71;85.38;98978.69;5074656;28;8860;-58
2022/12/08 11:30:16;;;;;;;;;4.80;4.80;;;;;3.72;85.27;98983.00;5075555;28;8845;-58
2022/12/08 11:32:46;;;;;;;;;4.00;4.00;;;;;3.74;85.20;98981.97;5075206;28;8864;-59
2022/12/08 11:35:14;;;;;;;;;3.00;3.00;;;;;3.78;84.76;98973.88;5075464;28;8851;-58
2022/12/08 11:37:42;;;;;;;;;3.20;2.20;;;;;3.80;85.26;98975.47;5074760;28;8841;-58
2022/12/08 11:40:10;;;;;;;;;4.40;3.20;;;;;3.80;85.46;98981.56;5074125;28;8872;-58
2022/12/08 11:42:38;;;;;;;;;6.80;6.80;;;;;3.84;84.94;98969.88;5073555;28;9562;-58
2022/12/08 11:45:07;;;;;;;;;3.00;2.20;;;;;3.87;84.53;98976.72;5074274;28;8968;-58
2022/12/08 11:47:35;;;;;;;;;6.20;5.60;;;;;3.87;84.64;98977.56;5074050;28;8927;-58
2022/12/08 11:50:03;;;;;;;;;4.80;4.80;;;;;3.87;84.71;98972.31;5072555;28;8919;-57
2022/12/08 11:52:32;;;;;;;;;6.60;4.00;;;;;3.86;85.25;98965.34;5073665;28;8860;-58
2022/12/08 11:55:00;;;;;;;;;5.60;4.00;;;;;3.85;84.93;98968.94;5073714;28;8950;-58